Time;durP1;ratioP1;P1;durP2;ratioP2;P2;SDS_P1;SDS_P2;PMS_P1;PMS_P2;Temp;Humidity;BMP_temperature;BMP_pressure;BME280_temperature;BME280_humidity;BME280_pressure;Samples;Min_cycle;Max_cycle;Signal;HPM_P1;HPM_P2
2020/12/23 00:00:12;;;;;;;4.83;3.25;;;;;;;6.87;82.49;98042.09;1721585;83;21553;-83
2020/12/23 00:02:40;;;;;;;5.05;3.33;;;;;;;6.88;82.57;98037.52;1721565;83;21712;-79
2020/12/23 00:05:07;;;;;;;5.90;4.15;;;;;;;6.90;82.61;98042.11;1721565;83;21527;-79
2020/12/23 00:07:33;;;;;;;4.97;3.83;;;;;;;6.91;82.60;98035.12;1721583;83;21184;-79
2020/12/23 00:10:05;;;;;;;6.33;3.87;;;;;;;6.84;82.52;98016.22;1721567;83;21092;-82
2020/12/23 00:12:32;;;;;;;6.72;3.75;;;;;;;6.92;82.50;98039.47;1721822;83;22099;-83
2020/12/23 00:14:58;;;;;;;8.60;4.62;;;;;;;6.94;82.32;98033.81;1721659;83;21785;-81
2020/12/23 00:17:24;;;;;;;4.62;3.15;;;;;;;6.91;82.35;98032.42;1721759;83;21061;-78
2020/12/23 00:19:49;;;;;;;4.03;3.08;;;;;;;6.93;82.20;98034.35;1721675;83;20930;-79
2020/12/23 00:22:15;;;;;;;4.60;2.80;;;;;;;6.92;82.33;98036.77;1721817;83;21636;-83
2020/12/23 00:24:42;;;;;;;6.67;3.98;;;;;;;6.94;82.42;98032.47;1721764;83;21173;-79
2020/12/23 00:27:08;;;;;;;9.00;4.15;;;;;;;6.92;82.43;98034.08;1721658;83;21248;-79
2020/12/23 00:29:39;;;;;;;8.50;4.62;;;;;;;6.91;82.52;98029.73;1721710;83;20935;-83
2020/12/23 00:32:05;;;;;;;6.58;4.33;;;;;;;6.92;82.58;98038.12;1719851;83;21153;-83
2020/12/23 00:34:31;;;;;;;6.47;3.80;;;;;;;6.97;82.53;98041.38;1721817;83;21653;-80
2020/12/23 00:36:59;;;;;;;6.12;3.90;;;;;;;6.91;82.55;98048.59;1721862;83;21294;-80
2020/12/23 00:39:25;;;;;;;7.20;4.22;;;;;;;6.92;82.58;98058.32;1721637;83;21170;-84
2020/12/23 00:41:51;;;;;;;10.88;5.22;;;;;;;6.94;82.17;98065.61;1721714;83;21137;-77
2020/12/23 00:44:17;;;;;;;9.88;5.35;;;;;;;6.91;82.39;98066.63;1721717;83;21019;-77
2020/12/23 00:46:43;;;;;;;5.70;3.62;;;;;;;6.92;82.55;98076.34;1693062;83;21152;-81
2020/12/23 00:49:09;;;;;;;7.35;5.72;;;;;;;6.97;82.42;98079.09;1721692;83;21197;-81
2020/12/23 00:51:35;;;;;;;7.08;3.67;;;;;;;6.96;82.57;98085.02;1721732;83;20982;-81
2020/12/23 00:54:01;;;;;;;5.35;3.52;;;;;;;7.00;82.62;98093.39;1721626;83;21573;-77
2020/12/23 00:56:27;;;;;;;4.87;2.83;;;;;;;7.03;82.51;98093.71;1721776;83;21062;-77
2020/12/23 00:58:53;;;;;;;5.70;3.67;;;;;;;7.05;82.48;98092.11;1746528;82;21032;-81
2020/12/23 01:01:19;;;;;;;7.25;3.92;;;;;;;7.03;82.36;98096.41;1721748;83;21308;-77
2020/12/23 01:03:45;;;;;;;8.48;5.17;;;;;;;6.99;82.16;98089.08;1746298;81;21224;-77
2020/12/23 01:06:11;;;;;;;7.60;3.95;;;;;;;7.05;81.95;98080.80;1721808;83;21161;-77
2020/12/23 01:08:37;;;;;;;6.30;3.65;;;;;;;7.07;82.09;98091.30;1693170;83;21066;-81
2020/12/23 01:11:10;;;;;;;7.00;3.33;;;;;;;7.05;81.95;98090.22;1721759;83;21196;-82
2020/12/23 01:13:36;;;;;;;4.60;3.10;;;;;;;7.05;82.10;98088.06;1721637;83;21219;-83
2020/12/23 01:16:02;;;;;;;6.35;3.58;;;;;;;7.05;82.17;98089.41;1721686;83;21153;-83
2020/12/23 01:18:28;;;;;;;7.58;3.33;;;;;;;7.06;82.17;98090.50;1721686;83;21009;-83
2020/12/23 01:20:55;;;;;;;5.65;3.33;;;;;;;7.08;82.21;98094.28;1721742;83;20884;-79
2020/12/23 01:23:22;;;;;;;6.97;3.33;;;;;;;7.11;82.05;98091.62;1721717;81;21152;-83
2020/12/23 01:25:55;;;;;;;6.85;4.92;;;;;;;7.13;81.79;98090.83;1721767;83;21161;-78
2020/12/23 01:28:21;;;;;;;8.28;4.62;;;;;;;7.08;81.95;98087.54;1721646;83;21659;-79
2020/12/23 01:30:46;;;;;;;10.75;5.40;;;;;;;7.03;81.96;98081.59;1693018;83;20946;-83
2020/12/23 01:33:12;;;;;;;7.78;4.55;;;;;;;7.02;81.80;98076.45;1721708;83;20919;-83
2020/12/23 01:35:38;;;;;;;14.85;7.20;;;;;;;6.99;81.81;98071.56;1721708;83;21039;-83
2020/12/23 01:38:04;;;;;;;6.12;3.92;;;;;;;6.99;81.87;98059.44;1721719;83;21376;-79
2020/12/23 01:40:30;;;;;;;7.95;4.10;;;;;;;7.00;82.03;98067.80;1669835;83;21140;-83
2020/12/23 01:42:56;;;;;;;8.23;4.35;;;;;;;6.97;82.16;98059.70;1721671;83;21443;-79
2020/12/23 01:45:22;;;;;;;11.20;6.35;;;;;;;6.99;82.22;98064.83;1746291;81;20958;-79
2020/12/23 01:47:48;;;;;;;6.87;4.20;;;;;;;6.99;82.17;98064.29;1669820;83;21035;-83
2020/12/23 01:50:15;;;;;;;15.32;6.97;;;;;;;7.01;82.22;98062.17;1721622;83;21119;-83
2020/12/23 01:52:40;;;;;;;8.13;4.72;;;;;;;7.04;81.90;98060.31;1721646;83;21140;-83
2020/12/23 01:55:11;;;;;;;9.25;5.65;;;;;;;6.96;81.84;98054.57;1721461;83;20935;-84
2020/12/23 01:57:37;;;;;;;8.53;5.55;;;;;;;6.86;81.90;98047.20;1721608;83;21220;-82
2020/12/23 02:00:05;;;;;;;11.83;6.55;;;;;;;6.78;81.94;98050.36;1721552;83;20942;-82
2020/12/23 02:02:35;;;;;;;10.55;6.22;;;;;;;6.71;82.10;98049.20;1721381;83;26248;-79
2020/12/23 02:05:07;;;;;;;18.87;10.58;;;;;;;6.65;82.28;98052.09;1721582;83;21236;-78
2020/12/23 02:07:33;;;;;;;16.48;8.80;;;;;;;6.64;82.61;98047.78;1721652;83;21157;-79
2020/12/23 02:10:05;;;;;;;15.45;9.80;;;;;;;6.67;82.68;98050.80;1721623;83;21571;-83
2020/12/23 02:12:31;;;;;;;7.62;4.87;;;;;;;6.63;82.85;98055.05;1721798;83;21152;-83
2020/12/23 02:15:12;;;;;;;9.53;5.22;;;;;;;6.70;82.81;98062.39;1746392;81;22239;-83
2020/12/23 02:17:39;;;;;;;18.17;9.93;;;;;;;6.74;82.79;98055.95;1721681;83;21586;-79
2020/12/23 02:20:09;;;;;;;7.67;5.40;;;;;;;6.76;82.69;98056.55;1669861;83;21517;-83
2020/12/23 02:22:36;;;;;;;8.13;5.50;;;;;;;6.76;82.96;98057.35;1721678;83;21153;-83
2020/12/23 02:25:02;;;;;;;8.35;5.40;;;;;;;6.84;82.77;98060.13;1693072;83;21232;-79
2020/12/23 02:27:28;;;;;;;7.83;4.80;;;;;;;6.87;82.74;98062.30;1721804;83;21710;-79
2020/12/23 02:29:56;;;;;;;5.70;3.40;;;;;;;6.91;82.64;98063.94;1746265;81;20915;-83
2020/12/23 02:32:22;;;;;;;6.15;3.92;;;;;;;6.93;82.53;98054.55;1721491;83;21136;-83
2020/12/23 02:34:48;;;;;;;5.55;3.90;;;;;;;6.99;82.51;98058.09;1721618;83;21487;-83
2020/12/23 02:37:14;;;;;;;6.65;4.00;;;;;;;7.02;82.59;98054.91;1721707;83;20951;-84
2020/12/23 02:39:43;;;;;;;6.97;4.80;;;;;;;7.08;82.56;98050.63;1721552;83;21117;-79
2020/12/23 02:42:08;;;;;;;7.67;4.47;;;;;;;7.08;82.65;98050.63;1721670;83;21609;-83
2020/12/23 02:44:36;;;;;;;7.03;4.33;;;;;;;7.10;82.45;98042.31;1721608;83;21009;-79
2020/12/23 02:47:06;;;;;;;8.00;5.10;;;;;;;7.07;82.24;98040.92;1721557;81;21189;-77
2020/12/23 02:49:32;;;;;;;9.53;4.40;;;;;;;6.95;82.08;98051.06;1721417;83;21565;-79
2020/12/23 02:51:57;;;;;;;6.65;5.00;;;;;;;6.80;82.31;98042.83;1721652;83;21187;-83
2020/12/23 02:54:24;;;;;;;6.05;3.80;;;;;;;6.74;82.36;98034.41;1721434;83;20930;-79
2020/12/23 02:56:50;;;;;;;9.85;6.35;;;;;;;6.68;82.54;98043.53;1746397;81;21653;-79
2020/12/23 02:59:16;;;;;;;7.62;5.45;;;;;;;6.63;82.73;98034.85;1721605;83;21062;-83
2020/12/23 03:01:42;;;;;;;4.78;3.27;;;;;;;6.61;82.90;98042.37;1721696;83;20934;-79
2020/12/23 03:04:08;;;;;;;10.32;6.08;;;;;;;6.59;83.25;98047.20;1721572;83;21372;-82
2020/12/23 03:06:35;;;;;;;11.10;7.58;;;;;;;6.61;83.35;98040.22;1721613;83;20943;-83
2020/12/23 03:09:04;;;;;;;8.33;6.12;;;;;;;6.61;83.32;98056.38;1721339;81;21153;-79
2020/12/23 03:11:30;;;;;;;8.60;6.27;;;;;;;6.58;83.44;98055.02;1721826;83;21577;-79
2020/12/23 03:13:56;;;;;;;12.68;7.08;;;;;;;6.53;83.40;98055.48;1721585;83;20938;-78
2020/12/23 03:16:22;;;;;;;17.80;12.73;;;;;;;6.45;83.33;98053.51;1746484;81;21108;-79
2020/12/23 03:18:48;;;;;;;26.10;13.20;;;;;;;6.44;83.17;98050.54;1717067;83;21812;-83
2020/12/23 03:21:14;;;;;;;25.77;13.15;;;;;;;6.41;83.43;98062.33;1721601;83;21049;-79
2020/12/23 03:23:40;;;;;;;9.23;6.50;;;;;;;6.40;83.41;98061.52;1721694;83;21228;-79
2020/12/23 03:26:06;;;;;;;7.12;4.47;;;;;;;6.39;83.71;98063.92;1721593;83;21062;-84
2020/12/23 03:28:32;;;;;;;7.78;4.83;;;;;;;6.39;83.87;98060.42;1721607;83;21195;-83
2020/12/23 03:30:59;;;;;;;7.83;4.40;;;;;;;6.42;84.05;98067.48;1721493;83;21847;-79
2020/12/23 03:33:25;;;;;;;9.25;4.78;;;;;;;6.46;84.30;98047.59;1746317;81;21180;-78
2020/12/23 03:35:51;;;;;;;7.47;4.60;;;;;;;6.47;84.27;98035.22;1721633;83;21132;-79
2020/12/23 03:38:17;;;;;;;10.53;6.03;;;;;;;6.67;84.34;98064.27;1721647;83;21057;-79
2020/12/23 03:40:42;;;;;;;9.00;4.62;;;;;;;6.71;84.17;98054.59;1721583;83;21328;-83
2020/12/23 03:43:08;;;;;;;5.08;3.70;;;;;;;6.73;84.04;98055.15;1721588;83;21006;-79
2020/12/23 03:45:34;;;;;;;6.55;3.83;;;;;;;6.80;83.97;98057.64;1721719;83;21113;-79
2020/12/23 03:48:00;;;;;;;11.78;4.50;;;;;;;6.86;84.03;98049.91;1721818;83;21117;-79
2020/12/23 03:50:26;;;;;;;5.45;2.83;;;;;;;6.93;83.85;98055.91;1721809;83;21062;-83
2020/12/23 03:52:52;;;;;;;6.55;4.78;;;;;;;7.01;83.81;98047.89;1721778;83;21190;-83
2020/12/23 03:55:18;;;;;;;8.00;4.70;;;;;;;7.07;83.70;98042.27;1721703;83;21886;-83
2020/12/23 03:57:44;;;;;;;6.42;4.50;;;;;;;7.11;83.41;98042.59;1693128;83;21767;-79
2020/12/23 04:00:11;;;;;;;7.62;4.90;;;;;;;7.06;83.25;98041.19;1690140;83;21145;-78
2020/12/23 04:02:37;;;;;;;11.63;4.78;;;;;;;7.03;83.32;98040.36;1721833;83;21050;-83
2020/12/23 04:05:03;;;;;;;9.25;5.78;;;;;;;7.03;83.36;98032.28;1721714;83;21911;-79
2020/12/23 04:07:29;;;;;;;19.60;10.28;;;;;;;6.95;83.40;98038.94;1721695;83;21616;-82
2020/12/23 04:09:55;;;;;;;12.40;6.50;;;;;;;6.93;83.54;98037.05;1721697;83;20954;-83
2020/12/23 04:12:21;;;;;;;15.72;8.20;;;;;;;6.92;83.50;98033.23;1721819;83;21208;-79
2020/12/23 04:14:47;;;;;;;14.38;8.63;;;;;;;6.84;83.54;98038.58;1721651;83;21037;-82
2020/12/23 04:17:13;;;;;;;13.62;8.35;;;;;;;6.79;83.58;98037.17;1721763;83;21470;-83
2020/12/23 04:19:39;;;;;;;11.12;5.45;;;;;;;6.79;83.55;98049.29;1721640;83;21017;-79
2020/12/23 04:22:05;;;;;;;11.25;6.35;;;;;;;6.78;83.48;98049.02;1721791;83;21170;-83
2020/12/23 04:24:31;;;;;;;20.72;11.83;;;;;;;6.73;83.75;98057.03;1721591;83;21148;-83
2020/12/23 04:26:57;;;;;;;41.55;17.85;;;;;;;6.72;83.72;98054.88;1721687;83;20943;-79
2020/12/23 04:29:23;;;;;;;16.40;10.32;;;;;;;6.71;83.93;98052.44;1669867;83;21412;-83
2020/12/23 04:31:49;;;;;;;17.55;14.15;;;;;;;6.68;83.97;98063.19;1721680;83;21216;-82
2020/12/23 04:34:15;;;;;;;33.83;19.25;;;;;;;6.66;84.09;98059.10;1721786;83;21734;-83
2020/12/23 04:36:42;;;;;;;22.05;12.03;;;;;;;6.63;84.13;98064.47;1721700;83;21623;-79
2020/12/23 04:39:08;;;;;;;19.07;11.65;;;;;;;6.60;84.17;98055.56;1721723;83;21192;-82
2020/12/23 04:41:34;;;;;;;128.20;60.35;;;;;;;6.57;84.18;98053.89;1721810;83;21370;-78
2020/12/23 04:44:03;;;;;;;34.75;19.70;;;;;;;6.54;84.15;98051.72;1721637;83;21228;-83
2020/12/23 04:46:36;;;;;;;10.60;5.67;;;;;;;6.54;84.15;98055.75;1720709;83;21224;-79
2020/12/23 04:49:03;;;;;;;10.05;6.15;;;;;;;6.54;84.37;98053.06;1721329;83;21136;-79
2020/12/23 04:51:34;;;;;;;10.85;7.58;;;;;;;6.52;84.38;98056.55;1721758;83;21173;-83
2020/12/23 04:54:01;;;;;;;14.15;8.38;;;;;;;6.56;84.58;98060.34;1721703;83;21565;-79
2020/12/23 04:56:29;;;;;;;14.25;7.40;;;;;;;6.58;84.54;98064.94;1721448;83;21090;-83
2020/12/23 04:58:55;;;;;;;28.65;16.35;;;;;;;6.57;84.68;98060.62;1721692;83;21132;-82
2020/12/23 05:01:21;;;;;;;16.10;10.48;;;;;;;6.59;84.55;98062.02;1721593;83;21145;-78
2020/12/23 05:03:48;;;;;;;16.48;9.50;;;;;;;6.56;84.52;98064.38;1721684;83;21832;-83
2020/12/23 05:06:16;;;;;;;11.88;8.05;;;;;;;6.52;84.74;98057.89;1746291;81;21437;-79
2020/12/23 05:08:42;;;;;;;14.03;7.65;;;;;;;6.50;84.90;98068.92;1719999;83;21145;-79
2020/12/23 05:11:11;;;;;;;26.15;16.93;;;;;;;6.47;85.18;98061.33;1746344;81;21057;-83
2020/12/23 05:13:38;;;;;;;30.12;14.63;;;;;;;6.46;85.32;98065.90;1693139;83;21712;-80
2020/12/23 05:16:06;;;;;;;14.43;9.15;;;;;;;6.49;85.72;98072.65;1721696;83;21062;-79
2020/12/23 05:18:39;;;;;;;20.68;12.18;;;;;;;6.40;85.71;98062.05;1745764;81;21149;-82
2020/12/23 05:21:14;;;;;;;13.85;9.75;;;;;;;6.36;86.01;98064.44;1721652;83;21110;-79
2020/12/23 05:23:34;;;;;;;11.05;7.90;;;;;;;6.36;85.99;98074.39;1723057;81;21101;-79
2020/12/23 05:26:05;;;;;;;20.25;10.90;;;;;;;6.32;86.22;98062.48;1721713;83;21564;-78
2020/12/23 05:28:31;;;;;;;18.67;8.90;;;;;;;6.29;86.53;98067.03;1721714;83;21117;-79
2020/12/23 05:30:58;;;;;;;25.88;11.80;;;;;;;6.29;86.72;98064.34;1746367;81;21252;-82
2020/12/23 05:33:24;;;;;;;21.55;11.78;;;;;;;6.31;87.00;98060.86;1692996;83;21197;-79
2020/12/23 05:35:50;;;;;;;30.70;14.47;;;;;;;6.33;87.33;98054.72;1721600;83;20958;-83
2020/12/23 05:38:20;;;;;;;102.47;40.95;;;;;;;6.33;87.37;98042.61;1716926;83;21076;-83
2020/12/23 05:40:46;;;;;;;21.45;10.48;;;;;;;6.32;87.71;98047.16;1716943;83;21181;-83
2020/12/23 05:43:14;;;;;;;67.75;31.85;;;;;;;6.37;87.84;98049.10;1721735;83;21226;-79
2020/12/23 05:45:43;;;;;;;33.83;18.07;;;;;;;6.35;87.64;98053.40;1721669;83;21129;-83
2020/12/23 05:48:13;;;;;;;27.50;15.58;;;;;;;6.40;87.67;98056.13;1721777;83;26524;-78
2020/12/23 05:50:39;;;;;;;27.77;13.55;;;;;;;6.36;87.42;98047.48;1721608;83;21185;-82
2020/12/23 05:53:15;;;;;;;20.50;10.65;;;;;;;6.34;87.42;98055.00;1721639;83;21237;-78
2020/12/23 05:55:53;;;;;;;13.83;8.75;;;;;;;6.34;87.66;98047.73;1687689;83;21209;-79
2020/12/23 05:58:40;;;;;;;19.95;10.13;;;;;;;6.31;87.60;98036.64;1717069;81;21220;-82
2020/12/23 06:01:08;;;;;;;22.25;13.48;;;;;;;6.34;87.72;98039.66;1761843;81;21129;-83
2020/12/23 06:03:55;;;;;;;31.97;17.12;;;;;;;6.26;87.80;98032.03;1760370;81;21208;-79
2020/12/23 06:06:28;;;;;;;16.93;10.00;;;;;;;6.25;87.50;98041.17;1760448;81;21117;-80
2020/12/23 06:08:56;;;;;;;23.73;11.08;;;;;;;6.20;87.59;98033.84;1760370;81;21326;-77
2020/12/23 06:11:33;;;;;;;28.15;14.60;;;;;;;6.18;87.73;98021.17;1760377;81;21113;-78
2020/12/23 06:14:24;;;;;;;23.50;13.50;;;;;;;6.22;87.68;98030.89;1760418;81;21065;-79
2020/12/23 06:17:04;;;;;;;16.50;10.43;;;;;;;6.25;87.54;98031.75;1733781;81;21057;-82
2020/12/23 06:19:40;;;;;;;20.15;12.23;;;;;;;6.30;88.38;98031.80;1760493;81;21453;-82
2020/12/23 06:22:08;;;;;;;17.12;10.48;;;;;;;6.37;87.85;98024.88;1757468;81;22104;-79
2020/12/23 06:24:34;;;;;;;15.08;9.20;;;;;;;6.41;87.66;98030.86;1760443;81;21181;-83
2020/12/23 06:27:03;;;;;;;15.20;10.30;;;;;;;6.43;87.51;98031.95;1732262;81;21457;-83
2020/12/23 06:29:32;;;;;;;14.85;10.18;;;;;;;6.43;87.70;98027.38;1760185;81;21041;-83
2020/12/23 06:32:05;;;;;;;15.25;9.90;;;;;;;6.47;87.55;98022.30;1757451;81;21128;-83
2020/12/23 06:34:39;;;;;;;29.10;14.13;;;;;;;6.49;87.49;98014.27;1760462;81;21473;-79
2020/12/23 06:37:16;;;;;;;263.10;113.60;;;;;;;6.55;87.63;98025.07;1709500;81;21196;-81
2020/12/23 06:39:43;;;;;;;42.53;19.42;;;;;;;6.57;87.47;98034.51;1732715;81;21113;-82
2020/12/23 06:42:14;;;;;;;21.93;12.88;;;;;;;6.57;87.22;98035.05;1760398;81;21155;-82
2020/12/23 06:44:54;;;;;;;23.47;12.98;;;;;;;6.49;87.29;98034.45;1760415;81;21331;-83
2020/12/23 06:47:24;;;;;;;17.70;12.30;;;;;;;6.49;87.15;98042.53;1760420;81;21556;-78
2020/12/23 06:50:01;;;;;;;32.28;21.48;;;;;;;6.50;87.11;98041.47;1760420;81;21057;-83
2020/12/23 06:52:29;;;;;;;54.67;30.00;;;;;;;6.54;87.03;98055.75;1760520;81;21144;-78
2020/12/23 06:55:17;;;;;;;87.78;41.30;;;;;;;6.56;86.95;98054.96;1760367;81;21085;-82
2020/12/23 06:57:46;;;;;;;54.70;26.37;;;;;;;6.59;86.93;98051.78;1760545;81;21121;-83
2020/12/23 07:00:28;;;;;;;53.48;25.30;;;;;;;6.55;86.80;98062.23;1760454;81;21058;-79
2020/12/23 07:02:59;;;;;;;44.67;24.43;;;;;;;6.50;86.89;98061.66;1757446;81;21195;-83
2020/12/23 07:05:48;;;;;;;51.55;30.40;;;;;;;6.48;86.83;98058.37;1732489;81;21116;-82
2020/12/23 07:08:16;;;;;;;48.10;25.05;;;;;;;6.42;86.89;98059.94;1827870;78;21132;-83
2020/12/23 07:10:47;;;;;;;60.10;38.02;;;;;;;6.43;87.25;98052.95;1825029;78;21027;-82
2020/12/23 07:13:17;;;;;;;77.12;49.55;;;;;;;6.45;87.30;98061.58;1821354;78;21114;-78
2020/12/23 07:15:58;;;;;;;81.35;52.83;;;;;;;6.50;87.41;98060.31;1795290;78;21451;-83
2020/12/23 07:18:27;;;;;;;81.85;55.25;;;;;;;6.49;87.72;98058.69;1822841;78;21122;-78
2020/12/23 07:21:08;;;;;;;66.37;40.55;;;;;;;6.46;87.70;98051.09;1821377;78;21397;-79
2020/12/23 07:23:34;;;;;;;83.10;45.12;;;;;;;6.46;87.70;98051.09;1821259;78;21121;-83
2020/12/23 07:26:04;;;;;;;55.20;30.55;;;;;;;6.44;87.70;98046.50;1769694;78;21180;-80
2020/12/23 07:28:41;;;;;;;39.20;22.35;;;;;;;6.42;87.85;98044.60;1821177;78;21113;-79
2020/12/23 07:31:11;;;;;;;47.93;27.85;;;;;;;6.45;87.90;98056.20;1821154;78;21464;-83
2020/12/23 07:33:37;;;;;;;42.20;28.62;;;;;;;6.48;87.98;98049.48;1795747;78;21119;-82
2020/12/23 07:36:04;;;;;;;32.10;17.90;;;;;;;6.47;87.94;98058.09;1821228;78;21061;-82
2020/12/23 07:38:34;;;;;;;51.68;23.27;;;;;;;6.50;87.90;98047.38;1795985;78;21106;-82
2020/12/23 07:41:00;;;;;;;44.15;17.15;;;;;;;6.59;87.88;98049.09;1821133;78;21114;-83
2020/12/23 07:43:27;;;;;;;39.08;22.52;;;;;;;6.62;87.96;98051.27;1821270;78;21852;-79
2020/12/23 07:45:53;;;;;;;46.80;26.12;;;;;;;6.67;87.92;98056.72;1821139;78;21043;-83
2020/12/23 07:48:23;;;;;;;24.40;15.50;;;;;;;6.75;88.00;98054.38;1795836;78;20996;-83
2020/12/23 07:50:51;;;;;;;20.68;13.72;;;;;;;6.77;87.84;98049.55;1821130;78;21226;-82
2020/12/23 07:53:29;;;;;;;24.52;16.87;;;;;;;6.70;87.48;98049.47;1821070;78;21105;-78
2020/12/23 07:56:05;;;;;;;60.92;34.88;;;;;;;6.63;87.81;98053.70;1797262;78;21039;-79
2020/12/23 07:58:33;;;;;;;32.10;18.85;;;;;;;6.63;87.82;98044.28;1821193;78;21134;-78
2020/12/23 08:00:59;;;;;;;41.55;23.60;;;;;;;6.63;87.82;98048.84;1820442;78;21514;-83
2020/12/23 08:03:32;;;;;;;53.00;30.25;;;;;;;6.64;87.68;98059.36;1821111;78;21141;-83
2020/12/23 08:06:11;;;;;;;37.38;23.50;;;;;;;6.69;87.64;98051.89;1795723;78;21161;-83
2020/12/23 08:08:40;;;;;;;29.40;19.90;;;;;;;6.73;87.57;98048.95;1821481;78;21130;-78
2020/12/23 08:11:14;;;;;;;45.98;24.43;;;;;;;6.75;87.55;98046.81;1795826;78;26480;-78
2020/12/23 08:13:41;;;;;;;57.08;30.57;;;;;;;6.81;87.60;98045.80;1821268;78;21086;-79
2020/12/23 08:16:15;;;;;;;41.95;28.02;;;;;;;6.84;87.47;98051.23;1821240;78;21066;-79
2020/12/23 08:18:42;;;;;;;50.05;29.45;;;;;;;6.78;87.38;98061.13;1821162;78;21157;-79
2020/12/23 08:21:17;;;;;;;133.32;53.25;;;;;;;6.76;87.53;98061.93;1820924;78;21058;-83
2020/12/23 08:23:43;;;;;;;113.08;58.65;;;;;;;6.75;87.90;98062.47;1821268;78;21094;-83
2020/12/23 08:26:10;;;;;;;125.38;67.22;;;;;;;6.71;88.00;98058.63;1821181;78;21578;-82
2020/12/23 08:28:42;;;;;;;84.03;49.83;;;;;;;6.64;87.99;98061.24;1795856;78;21247;-78
2020/12/23 08:31:12;;;;;;;75.08;38.05;;;;;;;6.56;88.09;98057.66;1821076;78;21070;-79
2020/12/23 08:33:39;;;;;;;77.30;43.55;;;;;;;6.55;88.34;98059.53;1821282;78;21602;-79
2020/12/23 08:36:05;;;;;;;156.32;74.22;;;;;;;6.52;88.16;98053.32;1821061;78;21042;-83
2020/12/23 08:38:31;;;;;;;228.00;104.27;;;;;;;6.57;88.35;98059.27;1821323;78;21177;-82
2020/12/23 08:40:59;;;;;;;102.58;53.05;;;;;;;6.57;88.34;98063.31;1795797;78;21229;-82
2020/12/23 08:43:30;;;;;;;102.32;57.78;;;;;;;6.60;88.65;98060.95;1821172;78;21102;-79
2020/12/23 08:45:58;;;;;;;74.55;44.15;;;;;;;6.61;88.61;98067.14;1821337;78;21038;-83
2020/12/23 08:48:28;;;;;;;72.42;41.50;;;;;;;6.60;88.64;98069.56;1821347;78;21507;-82
2020/12/23 08:51:02;;;;;;;87.65;52.95;;;;;;;6.68;88.87;98064.53;1796271;78;21019;-78
2020/12/23 08:53:31;;;;;;;49.50;35.30;;;;;;;6.62;88.62;98058.81;1821392;78;21756;-79
2020/12/23 08:55:57;;;;;;;451.50;206.72;;;;;;;6.66;88.78;98061.80;1821394;78;28421;-83
2020/12/23 08:58:23;;;;;;;180.18;77.65;;;;;;;6.68;88.71;98058.34;1821402;78;21820;-79
2020/12/23 09:01:02;;;;;;;287.27;132.93;;;;;;;6.74;88.75;98059.46;1821272;78;20994;-79
2020/12/23 09:03:28;;;;;;;62.93;33.40;;;;;;;6.82;88.80;98056.84;1821340;78;21189;-83
2020/12/23 09:05:57;;;;;;;71.42;42.15;;;;;;;6.88;88.76;98057.72;1795928;78;21906;-78
2020/12/23 09:08:26;;;;;;;60.98;43.10;;;;;;;6.92;88.67;98060.17;1821231;78;21018;-77
2020/12/23 09:10:56;;;;;;;79.25;51.05;;;;;;;6.94;88.58;98056.71;1795970;78;21125;-82
2020/12/23 09:13:32;;;;;;;63.20;44.65;;;;;;;6.95;88.52;98055.11;1821112;78;21125;-79
2020/12/23 09:15:59;;;;;;;62.27;42.53;;;;;;;6.94;88.54;98051.33;1821314;78;21022;-83
2020/12/23 09:18:25;;;;;;;69.37;42.03;;;;;;;6.98;88.76;98049.73;1821221;78;21216;-83
2020/12/23 09:21:01;;;;;;;65.85;43.45;;;;;;;6.99;88.79;98054.05;1821169;78;20990;-79
2020/12/23 09:23:27;;;;;;;64.05;41.08;;;;;;;6.95;89.68;98050.25;1796865;78;21090;-78
2020/12/23 09:25:54;;;;;;;69.17;42.73;;;;;;;7.00;89.03;98041.66;1821107;78;21031;-78
2020/12/23 09:28:20;;;;;;;62.00;41.02;;;;;;;7.00;88.62;98047.59;1821333;78;21605;-82
2020/12/23 09:30:48;;;;;;;96.67;58.02;;;;;;;7.04;88.67;98050.87;1821273;78;21168;-78
2020/12/23 09:33:20;;;;;;;67.32;42.85;;;;;;;7.06;88.57;98038.48;1821152;78;21130;-78
2020/12/23 09:36:05;;;;;;;48.52;31.75;;;;;;;7.09;88.37;98043.36;1820796;78;21046;-78
2020/12/23 09:38:36;;;;;;;37.80;26.23;;;;;;;7.14;88.37;98043.95;1795825;78;21121;-83
2020/12/23 09:41:06;;;;;;;41.20;25.08;;;;;;;7.15;88.14;98042.87;1821368;78;21090;-82
2020/12/23 09:43:35;;;;;;;49.27;29.85;;;;;;;7.12;88.21;98046.09;1796844;78;21546;-78
2020/12/23 09:46:05;;;;;;;61.42;35.08;;;;;;;7.04;88.23;98050.87;1820818;78;21102;-82
2020/12/23 09:48:32;;;;;;;38.45;27.73;;;;;;;6.97;88.30;98048.92;1821147;78;21545;-78
2020/12/23 09:50:58;;;;;;;37.93;26.15;;;;;;;7.01;88.59;98052.75;1821256;78;21022;-83
2020/12/23 09:53:24;;;;;;;39.00;27.73;;;;;;;7.11;88.59;98040.43;1795679;78;20892;-82
2020/12/23 09:55:50;;;;;;;38.05;26.45;;;;;;;7.14;88.51;98039.38;1821294;78;21326;-78
2020/12/23 09:58:19;;;;;;;39.60;25.75;;;;;;;7.19;88.54;98027.83;1795811;78;21038;-78
2020/12/23 10:00:47;;;;;;;54.73;37.40;;;;;;;7.22;88.55;98017.34;1822853;78;21455;-79
2020/12/23 10:03:12;;;;;;;67.10;46.42;;;;;;;7.22;88.61;98021.38;1821335;78;21102;-73
2020/12/23 10:05:38;;;;;;;74.97;50.12;;;;;;;7.29;88.81;98027.91;1821451;78;20880;-70
2020/12/23 10:08:06;;;;;;;65.55;45.70;;;;;;;7.39;88.62;98022.58;1821098;78;21362;-77
2020/12/23 10:10:32;;;;;;;55.55;39.42;;;;;;;7.45;88.47;98015.36;1821290;78;21077;-77
2020/12/23 10:12:59;;;;;;;50.17;38.08;;;;;;;7.49;88.25;98017.80;1821300;78;21157;-77
2020/12/23 10:15:25;;;;;;;49.93;35.68;;;;;;;7.54;88.26;98015.14;1821247;78;21026;-82
2020/12/23 10:17:50;;;;;;;46.08;27.07;;;;;;;7.58;88.17;98018.39;1821319;78;21000;-78
2020/12/23 10:20:16;;;;;;;46.35;31.73;;;;;;;7.59;87.91;98025.95;1821273;78;21378;-78
2020/12/23 10:22:42;;;;;;;49.05;31.57;;;;;;;7.51;87.68;98017.80;1821244;78;20916;-78
2020/12/23 10:25:10;;;;;;;86.80;44.67;;;;;;;7.46;87.72;98016.98;1821206;78;20982;-78
2020/12/23 10:27:36;;;;;;;76.15;40.17;;;;;;;7.43;87.80;98020.17;1821480;78;21574;-82
2020/12/23 10:30:05;;;;;;;102.45;62.58;;;;;;;7.43;87.85;98021.52;1821320;78;20955;-82
2020/12/23 10:32:31;;;;;;;109.60;60.28;;;;;;;7.44;87.94;98020.48;1821431;78;21260;-78
2020/12/23 10:34:57;;;;;;;98.78;58.58;;;;;;;7.38;87.83;98011.53;1821190;78;20986;-77
2020/12/23 10:37:25;;;;;;;91.60;55.03;;;;;;;7.40;88.06;98008.03;1822943;78;21011;-77
2020/12/23 10:39:51;;;;;;;166.03;91.67;;;;;;;7.48;88.33;98009.44;1821244;78;21095;-78
2020/12/23 10:42:17;;;;;;;157.18;99.20;;;;;;;7.53;88.23;98002.73;1821273;78;21660;-78
2020/12/23 10:44:43;;;;;;;127.87;81.28;;;;;;;7.50;87.89;97991.11;1821175;78;22187;-82
2020/12/23 10:47:09;;;;;;;141.92;82.08;;;;;;;7.50;87.84;97995.95;1821151;78;21587;-82
2020/12/23 10:49:35;;;;;;;138.12;81.25;;;;;;;7.44;87.57;97988.13;1821216;78;21022;-82
2020/12/23 10:52:01;;;;;;;142.32;85.55;;;;;;;7.48;87.70;97999.45;1820957;78;21517;-82
2020/12/23 10:54:28;;;;;;;124.07;80.65;;;;;;;7.47;87.52;98002.42;1821136;78;20967;-82
2020/12/23 10:56:55;;;;;;;147.95;90.45;;;;;;;7.45;87.62;97995.14;1795813;78;21155;-82
2020/12/23 10:59:21;;;;;;;112.60;70.90;;;;;;;7.48;87.68;97994.06;1821209;78;21089;-82
2020/12/23 11:01:55;;;;;;;96.20;63.85;;;;;;;7.48;87.63;97990.56;1821282;78;21478;-82
2020/12/23 11:04:21;;;;;;;98.25;63.05;;;;;;;7.53;87.87;97994.65;1821179;78;21121;-77
2020/12/23 11:06:51;;;;;;;84.25;52.53;;;;;;;7.57;87.85;98004.64;1821167;78;21460;-81
2020/12/23 11:09:18;;;;;;;77.20;49.08;;;;;;;7.55;87.92;98006.79;1821205;78;21451;-82
2020/12/23 11:11:51;;;;;;;67.45;43.50;;;;;;;7.54;87.88;97994.38;1821183;78;21088;-82
2020/12/23 11:14:18;;;;;;;57.78;34.80;;;;;;;7.59;88.05;97994.94;1795880;78;21083;-82
2020/12/23 11:16:49;;;;;;;67.00;39.85;;;;;;;7.65;88.20;97988.50;1821236;78;21558;-82
2020/12/23 11:19:15;;;;;;;78.90;46.30;;;;;;;7.67;88.05;97991.75;1820537;78;21015;-79
2020/12/23 11:21:41;;;;;;;41.83;29.00;;;;;;;7.70;87.81;97984.50;1821233;78;20974;-82
2020/12/23 11:24:07;;;;;;;30.10;18.23;;;;;;;7.66;87.83;97986.08;1795697;78;21122;-79
2020/12/23 11:26:33;;;;;;;35.80;21.75;;;;;;;7.71;87.90;97986.12;1795734;78;21518;-79
2020/12/23 11:29:01;;;;;;;78.28;46.60;;;;;;;7.77;87.73;97977.50;1821112;78;20900;-83
2020/12/23 11:31:27;;;;;;;96.00;45.73;;;;;;;7.73;87.66;97975.06;1821635;78;21014;-79
2020/12/23 11:33:53;;;;;;;97.72;45.08;;;;;;;7.74;87.88;97982.89;1821229;78;21229;-83